sensor_id;sensor_type;location;lat;lon;timestamp;temperature;humidity
5210;DHT22;2624;48.048;11.706;2023-12-20T00:00:17;3.50;99.90
5210;DHT22;2624;48.048;11.706;2023-12-20T00:05:20;3.40;99.90
5210;DHT22;2624;48.048;11.706;2023-12-20T00:10:22;3.40;99.90
5210;DHT22;2624;48.048;11.706;2023-12-20T00:15:24;3.50;99.90
5210;DHT22;2624;48.048;11.706;2023-12-20T00:20:27;3.60;99.90
5210;DHT22;2624;48.048;11.706;2023-12-20T00:25:28;3.50;99.90
5210;DHT22;2624;48.048;11.706;2023-12-20T00:30:30;3.50;99.90
5210;DHT22;2624;48.048;11.706;2023-12-20T00:35:33;3.70;99.90
5210;DHT22;2624;48.048;11.706;2023-12-20T00:40:35;3.70;99.90
5210;DHT22;2624;48.048;11.706;2023-12-20T00:45:37;3.80;99.90
5210;DHT22;2624;48.048;11.706;2023-12-20T00:50:41;3.90;99.90
5210;DHT22;2624;48.048;11.706;2023-12-20T00:55:42;3.70;99.90
5210;DHT22;2624;48.048;11.706;2023-12-20T01:00:45;3.80;99.90
5210;DHT22;2624;48.048;11.706;2023-12-20T01:05:48;3.80;99.90
5210;DHT22;2624;48.048;11.706;2023-12-20T01:10:50;3.90;99.90
5210;DHT22;2624;48.048;11.706;2023-12-20T01:15:52;3.90;99.90
5210;DHT22;2624;48.048;11.706;2023-12-20T01:20:55;4.00;99.90
5210;DHT22;2624;48.048;11.706;2023-12-20T01:25:56;4.00;99.90
5210;DHT22;2624;48.048;11.706;2023-12-20T01:31:00;4.00;99.90
5210;DHT22;2624;48.048;11.706;2023-12-20T01:36:03;3.90;99.90
5210;DHT22;2624;48.048;11.706;2023-12-20T01:41:06;3.80;99.90
5210;DHT22;2624;48.048;11.706;2023-12-20T01:46:08;3.90;99.90
5210;DHT22;2624;48.048;11.706;2023-12-20T01:51:11;3.90;99.90
5210;DHT22;2624;48.048;11.706;2023-12-20T01:56:13;3.80;99.90
5210;DHT22;2624;48.048;11.706;2023-12-20T02:01:16;3.70;99.90
5210;DHT22;2624;48.048;11.706;2023-12-20T02:06:21;3.70;99.90
5210;DHT22;2624;48.048;11.706;2023-12-20T02:11:25;3.70;99.90
5210;DHT22;2624;48.048;11.706;2023-12-20T02:16:27;3.70;99.90
5210;DHT22;2624;48.048;11.706;2023-12-20T02:21:33;3.60;99.90
5210;DHT22;2624;48.048;11.706;2023-12-20T02:26:39;3.70;99.90
5210;DHT22;2624;48.048;11.706;2023-12-20T02:31:41;3.70;99.90
5210;DHT22;2624;48.048;11.706;2023-12-20T02:36:44;3.80;99.90
5210;DHT22;2624;48.048;11.706;2023-12-20T02:41:46;3.80;99.90
5210;DHT22;2624;48.048;11.706;2023-12-20T02:46:48;3.80;99.90
5210;DHT22;2624;48.048;11.706;2023-12-20T02:51:51;3.90;99.90
5210;DHT22;2624;48.048;11.706;2023-12-20T02:56:53;3.90;99.90
5210;DHT22;2624;48.048;11.706;2023-12-20T03:01:54;3.90;99.90
5210;DHT22;2624;48.048;11.706;2023-12-20T03:06:57;3.90;99.90
5210;DHT22;2624;48.048;11.706;2023-12-20T03:11:59;3.90;99.90
5210;DHT22;2624;48.048;11.706;2023-12-20T03:17:01;3.90;99.90
5210;DHT22;2624;48.048;11.706;2023-12-20T03:22:04;3.90;99.90
5210;DHT22;2624;48.048;11.706;2023-12-20T03:27:06;3.90;99.90
5210;DHT22;2624;48.048;11.706;2023-12-20T03:32:07;4.00;99.90
5210;DHT22;2624;48.048;11.706;2023-12-20T03:37:11;4.00;99.90
5210;DHT22;2624;48.048;11.706;2023-12-20T03:42:12;4.00;99.90
5210;DHT22;2624;48.048;11.706;2023-12-20T03:47:14;4.00;99.90
5210;DHT22;2624;48.048;11.706;2023-12-20T03:52:17;4.00;99.90
5210;DHT22;2624;48.048;11.706;2023-12-20T03:57:19;4.10;99.90
5210;DHT22;2624;48.048;11.706;2023-12-20T04:02:21;4.00;99.90
5210;DHT22;2624;48.048;11.706;2023-12-20T04:07:24;4.10;99.90
5210;DHT22;2624;48.048;11.706;2023-12-20T04:12:26;3.90;99.90
5210;DHT22;2624;48.048;11.706;2023-12-20T04:17:28;4.10;99.90
5210;DHT22;2624;48.048;11.706;2023-12-20T04:22:31;4.10;99.90
5210;DHT22;2624;48.048;11.706;2023-12-20T04:27:33;4.10;99.90
5210;DHT22;2624;48.048;11.706;2023-12-20T04:32:35;4.00;99.90
5210;DHT22;2624;48.048;11.706;2023-12-20T04:37:38;4.00;99.90
5210;DHT22;2624;48.048;11.706;2023-12-20T04:42:40;4.10;99.90
5210;DHT22;2624;48.048;11.706;2023-12-20T04:47:42;4.30;99.90
5210;DHT22;2624;48.048;11.706;2023-12-20T04:52:45;4.10;99.90
5210;DHT22;2624;48.048;11.706;2023-12-20T04:57:47;4.20;99.90
5210;DHT22;2624;48.048;11.706;2023-12-20T05:02:49;4.30;99.90
5210;DHT22;2624;48.048;11.706;2023-12-20T05:07:52;4.20;99.90
5210;DHT22;2624;48.048;11.706;2023-12-20T05:12:54;4.20;99.90
5210;DHT22;2624;48.048;11.706;2023-12-20T05:17:55;4.10;99.90
5210;DHT22;2624;48.048;11.706;2023-12-20T05:22:58;4.20;99.90
5210;DHT22;2624;48.048;11.706;2023-12-20T05:28:00;4.10;99.90
5210;DHT22;2624;48.048;11.706;2023-12-20T05:33:02;4.10;99.90
5210;DHT22;2624;48.048;11.706;2023-12-20T05:38:05;4.10;99.90
5210;DHT22;2624;48.048;11.706;2023-12-20T05:43:07;4.10;99.90
5210;DHT22;2624;48.048;11.706;2023-12-20T05:48:09;4.10;99.90
5210;DHT22;2624;48.048;11.706;2023-12-20T05:53:12;4.10;99.90
5210;DHT22;2624;48.048;11.706;2023-12-20T05:58:13;4.10;99.90
5210;DHT22;2624;48.048;11.706;2023-12-20T06:03:15;4.10;99.90
5210;DHT22;2624;48.048;11.706;2023-12-20T06:08:18;4.10;99.90
5210;DHT22;2624;48.048;11.706;2023-12-20T06:13:20;4.10;99.90
5210;DHT22;2624;48.048;11.706;2023-12-20T06:18:22;4.10;99.90
5210;DHT22;2624;48.048;11.706;2023-12-20T06:23:25;4.10;99.90
5210;DHT22;2624;48.048;11.706;2023-12-20T06:28:28;4.10;99.90
5210;DHT22;2624;48.048;11.706;2023-12-20T06:33:30;4.00;99.90
5210;DHT22;2624;48.048;11.706;2023-12-20T06:38:33;4.00;99.90
5210;DHT22;2624;48.048;11.706;2023-12-20T06:43:35;4.00;99.90
5210;DHT22;2624;48.048;11.706;2023-12-20T06:48:37;4.00;99.90
5210;DHT22;2624;48.048;11.706;2023-12-20T06:53:40;4.00;99.90
5210;DHT22;2624;48.048;11.706;2023-12-20T06:58:42;3.90;99.90
5210;DHT22;2624;48.048;11.706;2023-12-20T07:03:43;4.00;99.90
5210;DHT22;2624;48.048;11.706;2023-12-20T07:08:47;3.90;99.90
5210;DHT22;2624;48.048;11.706;2023-12-20T07:13:48;3.90;99.90
5210;DHT22;2624;48.048;11.706;2023-12-20T07:18:50;3.90;99.90
5210;DHT22;2624;48.048;11.706;2023-12-20T07:23:54;3.90;99.90
5210;DHT22;2624;48.048;11.706;2023-12-20T07:28:56;3.80;99.90
5210;DHT22;2624;48.048;11.706;2023-12-20T07:33:59;3.80;99.90
5210;DHT22;2624;48.048;11.706;2023-12-20T07:39:02;3.80;99.90
5210;DHT22;2624;48.048;11.706;2023-12-20T07:44:04;3.80;99.90
5210;DHT22;2624;48.048;11.706;2023-12-20T07:49:06;3.70;99.90
5210;DHT22;2624;48.048;11.706;2023-12-20T07:54:10;3.70;99.90
5210;DHT22;2624;48.048;11.706;2023-12-20T07:59:12;3.70;99.90
5210;DHT22;2624;48.048;11.706;2023-12-20T08:04:13;3.70;99.90
5210;DHT22;2624;48.048;11.706;2023-12-20T08:09:17;3.60;99.90
5210;DHT22;2624;48.048;11.706;2023-12-20T08:14:19;3.60;99.90
5210;DHT22;2624;48.048;11.706;2023-12-20T08:19:20;3.60;99.90
5210;DHT22;2624;48.048;11.706;2023-12-20T08:24:23;3.50;99.90
5210;DHT22;2624;48.048;11.706;2023-12-20T08:29:25;3.50;99.90
5210;DHT22;2624;48.048;11.706;2023-12-20T08:34:27;3.50;99.90
5210;DHT22;2624;48.048;11.706;2023-12-20T08:39:30;3.60;99.90
5210;DHT22;2624;48.048;11.706;2023-12-20T08:44:34;3.60;99.90
5210;DHT22;2624;48.048;11.706;2023-12-20T08:49:35;3.60;99.90
5210;DHT22;2624;48.048;11.706;2023-12-20T08:54:38;3.60;99.90
5210;DHT22;2624;48.048;11.706;2023-12-20T08:59:40;3.50;99.90
5210;DHT22;2624;48.048;11.706;2023-12-20T09:04:42;3.40;99.90
5210;DHT22;2624;48.048;11.706;2023-12-20T09:09:45;3.60;99.90
5210;DHT22;2624;48.048;11.706;2023-12-20T09:14:47;3.60;99.90
5210;DHT22;2624;48.048;11.706;2023-12-20T09:19:49;3.60;99.90
5210;DHT22;2624;48.048;11.706;2023-12-20T09:24:54;3.90;99.90
5210;DHT22;2624;48.048;11.706;2023-12-20T09:29:56;3.40;99.90
5210;DHT22;2624;48.048;11.706;2023-12-20T09:34:57;3.60;99.90
5210;DHT22;2624;48.048;11.706;2023-12-20T09:40:00;3.50;99.90
5210;DHT22;2624;48.048;11.706;2023-12-20T09:45:04;3.60;99.90
5210;DHT22;2624;48.048;11.706;2023-12-20T09:50:09;3.60;99.90
5210;DHT22;2624;48.048;11.706;2023-12-20T09:55:12;3.60;99.90
5210;DHT22;2624;48.048;11.706;2023-12-20T10:00:15;3.60;99.90
5210;DHT22;2624;48.048;11.706;2023-12-20T10:05:17;3.70;99.90
5210;DHT22;2624;48.048;11.706;2023-12-20T10:10:22;3.70;99.90
5210;DHT22;2624;48.048;11.706;2023-12-20T10:15:23;3.80;99.90
5210;DHT22;2624;48.048;11.706;2023-12-20T10:20:25;3.70;99.90
5210;DHT22;2624;48.048;11.706;2023-12-20T10:25:30;3.60;99.90
5210;DHT22;2624;48.048;11.706;2023-12-20T10:30:33;3.70;99.90
5210;DHT22;2624;48.048;11.706;2023-12-20T10:35:35;3.70;99.90
5210;DHT22;2624;48.048;11.706;2023-12-20T10:40:38;3.80;99.90
5210;DHT22;2624;48.048;11.706;2023-12-20T10:45:41;3.80;99.90
5210;DHT22;2624;48.048;11.706;2023-12-20T10:50:44;3.90;99.90
5210;DHT22;2624;48.048;11.706;2023-12-20T10:55:48;3.80;99.90
5210;DHT22;2624;48.048;11.706;2023-12-20T11:00:56;3.90;99.90
5210;DHT22;2624;48.048;11.706;2023-12-20T11:06:05;3.90;99.90
5210;DHT22;2624;48.048;11.706;2023-12-20T11:11:14;3.90;99.90
5210;DHT22;2624;48.048;11.706;2023-12-20T11:16:22;4.00;99.90
5210;DHT22;2624;48.048;11.706;2023-12-20T11:21:24;3.90;99.90
5210;DHT22;2624;48.048;11.706;2023-12-20T11:26:28;3.90;99.90
5210;DHT22;2624;48.048;11.706;2023-12-20T11:31:40;3.90;99.90
5210;DHT22;2624;48.048;11.706;2023-12-20T11:36:41;3.90;99.90
5210;DHT22;2624;48.048;11.706;2023-12-20T11:41:46;4.00;99.90
5210;DHT22;2624;48.048;11.706;2023-12-20T11:46:47;3.90;99.90
5210;DHT22;2624;48.048;11.706;2023-12-20T11:51:49;4.00;99.90
5210;DHT22;2624;48.048;11.706;2023-12-20T11:56:52;3.90;99.90
5210;DHT22;2624;48.048;11.706;2023-12-20T12:01:54;3.90;99.90
5210;DHT22;2624;48.048;11.706;2023-12-20T12:07:00;3.90;99.90
5210;DHT22;2624;48.048;11.706;2023-12-20T12:12:04;4.00;99.90
5210;DHT22;2624;48.048;11.706;2023-12-20T12:17:10;4.00;99.90
5210;DHT22;2624;48.048;11.706;2023-12-20T12:22:13;4.00;99.90
5210;DHT22;2624;48.048;11.706;2023-12-20T12:27:17;4.00;99.90
5210;DHT22;2624;48.048;11.706;2023-12-20T12:32:19;4.00;99.90
5210;DHT22;2624;48.048;11.706;2023-12-20T12:37:22;4.00;99.90
5210;DHT22;2624;48.048;11.706;2023-12-20T12:42:25;4.00;99.90
5210;DHT22;2624;48.048;11.706;2023-12-20T12:47:29;3.90;99.90
5210;DHT22;2624;48.048;11.706;2023-12-20T12:52:31;4.00;99.90
5210;DHT22;2624;48.048;11.706;2023-12-20T12:57:34;4.00;99.90
5210;DHT22;2624;48.048;11.706;2023-12-20T13:02:36;4.00;99.90
5210;DHT22;2624;48.048;11.706;2023-12-20T13:07:38;4.00;99.90
5210;DHT22;2624;48.048;11.706;2023-12-20T13:12:41;4.00;99.90
5210;DHT22;2624;48.048;11.706;2023-12-20T13:17:43;4.00;99.90
5210;DHT22;2624;48.048;11.706;2023-12-20T13:22:46;4.00;99.90
5210;DHT22;2624;48.048;11.706;2023-12-20T13:27:50;4.00;99.90
5210;DHT22;2624;48.048;11.706;2023-12-20T13:32:51;4.10;99.90
5210;DHT22;2624;48.048;11.706;2023-12-20T13:37:53;4.00;99.90
5210;DHT22;2624;48.048;11.706;2023-12-20T13:42:58;4.00;99.90
5210;DHT22;2624;48.048;11.706;2023-12-20T13:47:59;4.00;99.90
5210;DHT22;2624;48.048;11.706;2023-12-20T13:53:01;4.00;99.90
5210;DHT22;2624;48.048;11.706;2023-12-20T13:58:06;4.00;99.90
5210;DHT22;2624;48.048;11.706;2023-12-20T14:03:07;4.00;99.90
5210;DHT22;2624;48.048;11.706;2023-12-20T14:08:10;3.90;99.90
5210;DHT22;2624;48.048;11.706;2023-12-20T14:13:13;3.90;99.90
5210;DHT22;2624;48.048;11.706;2023-12-20T14:18:15;3.90;99.90
5210;DHT22;2624;48.048;11.706;2023-12-20T14:23:17;3.80;99.90
5210;DHT22;2624;48.048;11.706;2023-12-20T14:28:20;3.80;99.90
5210;DHT22;2624;48.048;11.706;2023-12-20T14:33:22;3.90;99.90
5210;DHT22;2624;48.048;11.706;2023-12-20T14:38:24;3.90;99.90
5210;DHT22;2624;48.048;11.706;2023-12-20T14:43:27;3.90;99.90
5210;DHT22;2624;48.048;11.706;2023-12-20T14:48:30;3.90;99.90
5210;DHT22;2624;48.048;11.706;2023-12-20T14:53:32;3.80;99.90
5210;DHT22;2624;48.048;11.706;2023-12-20T14:58:37;3.80;99.90
5210;DHT22;2624;48.048;11.706;2023-12-20T15:03:39;3.80;99.90
5210;DHT22;2624;48.048;11.706;2023-12-20T15:08:41;3.80;99.90
5210;DHT22;2624;48.048;11.706;2023-12-20T15:13:44;3.80;99.90
5210;DHT22;2624;48.048;11.706;2023-12-20T15:18:48;3.70;99.90
5210;DHT22;2624;48.048;11.706;2023-12-20T15:23:50;3.80;99.90
5210;DHT22;2624;48.048;11.706;2023-12-20T15:28:55;3.70;99.90
5210;DHT22;2624;48.048;11.706;2023-12-20T15:33:57;3.70;99.90
5210;DHT22;2624;48.048;11.706;2023-12-20T15:38:59;3.70;99.90
5210;DHT22;2624;48.048;11.706;2023-12-20T15:44:02;3.70;99.90
5210;DHT22;2624;48.048;11.706;2023-12-20T15:49:04;3.80;99.90
5210;DHT22;2624;48.048;11.706;2023-12-20T15:54:05;3.70;99.90
5210;DHT22;2624;48.048;11.706;2023-12-20T15:59:10;3.70;99.90
5210;DHT22;2624;48.048;11.706;2023-12-20T16:04:11;3.70;99.90
5210;DHT22;2624;48.048;11.706;2023-12-20T16:09:13;3.60;99.90
5210;DHT22;2624;48.048;11.706;2023-12-20T16:14:17;3.60;99.90
5210;DHT22;2624;48.048;11.706;2023-12-20T16:19:20;3.50;99.90
5210;DHT22;2624;48.048;11.706;2023-12-20T16:24:22;3.50;99.90
5210;DHT22;2624;48.048;11.706;2023-12-20T16:29:25;3.50;99.90
5210;DHT22;2624;48.048;11.706;2023-12-20T16:34:26;3.50;99.90
5210;DHT22;2624;48.048;11.706;2023-12-20T16:39:28;3.60;99.90
5210;DHT22;2624;48.048;11.706;2023-12-20T16:44:31;3.50;99.90
5210;DHT22;2624;48.048;11.706;2023-12-20T16:49:33;3.50;99.90
5210;DHT22;2624;48.048;11.706;2023-12-20T16:54:35;3.50;99.90
5210;DHT22;2624;48.048;11.706;2023-12-20T16:59:42;3.50;99.90
5210;DHT22;2624;48.048;11.706;2023-12-20T17:04:43;3.50;99.90
5210;DHT22;2624;48.048;11.706;2023-12-20T17:09:45;3.40;99.90
5210;DHT22;2624;48.048;11.706;2023-12-20T17:14:49;3.50;99.90
5210;DHT22;2624;48.048;11.706;2023-12-20T17:19:50;3.40;99.90
5210;DHT22;2624;48.048;11.706;2023-12-20T17:24:52;3.40;99.90
5210;DHT22;2624;48.048;11.706;2023-12-20T17:29:55;3.30;99.90
5210;DHT22;2624;48.048;11.706;2023-12-20T17:34:57;3.40;99.90
5210;DHT22;2624;48.048;11.706;2023-12-20T17:39:59;3.30;99.90
5210;DHT22;2624;48.048;11.706;2023-12-20T17:45:02;3.40;99.90
5210;DHT22;2624;48.048;11.706;2023-12-20T17:50:05;3.40;99.90
5210;DHT22;2624;48.048;11.706;2023-12-20T17:55:07;3.30;99.90
5210;DHT22;2624;48.048;11.706;2023-12-20T18:00:17;3.30;99.90
5210;DHT22;2624;48.048;11.706;2023-12-20T18:05:20;3.30;99.90
5210;DHT22;2624;48.048;11.706;2023-12-20T18:10:22;3.30;99.90
5210;DHT22;2624;48.048;11.706;2023-12-20T18:15:25;3.20;99.90
5210;DHT22;2624;48.048;11.706;2023-12-20T18:20:27;3.20;99.90
5210;DHT22;2624;48.048;11.706;2023-12-20T18:25:28;3.10;99.90
5210;DHT22;2624;48.048;11.706;2023-12-20T18:30:31;3.10;99.90
5210;DHT22;2624;48.048;11.706;2023-12-20T18:35:33;3.00;99.90
5210;DHT22;2624;48.048;11.706;2023-12-20T18:40:38;3.10;99.90
5210;DHT22;2624;48.048;11.706;2023-12-20T18:45:48;3.00;99.90
5210;DHT22;2624;48.048;11.706;2023-12-20T18:50:50;3.00;99.90
5210;DHT22;2624;48.048;11.706;2023-12-20T18:55:52;3.00;99.90
5210;DHT22;2624;48.048;11.706;2023-12-20T19:00:55;3.00;99.90
5210;DHT22;2624;48.048;11.706;2023-12-20T19:05:58;2.90;99.90
5210;DHT22;2624;48.048;11.706;2023-12-20T19:11:02;2.90;99.90
5210;DHT22;2624;48.048;11.706;2023-12-20T19:16:06;2.90;99.90
5210;DHT22;2624;48.048;11.706;2023-12-20T19:21:07;2.80;99.90
5210;DHT22;2624;48.048;11.706;2023-12-20T19:26:09;3.00;99.90
5210;DHT22;2624;48.048;11.706;2023-12-20T19:31:12;2.80;99.90
5210;DHT22;2624;48.048;11.706;2023-12-20T19:36:14;2.80;99.90
5210;DHT22;2624;48.048;11.706;2023-12-20T19:41:16;2.80;99.90
5210;DHT22;2624;48.048;11.706;2023-12-20T19:46:20;2.80;99.90
5210;DHT22;2624;48.048;11.706;2023-12-20T19:51:21;2.70;99.90
5210;DHT22;2624;48.048;11.706;2023-12-20T19:56:24;2.80;99.90
5210;DHT22;2624;48.048;11.706;2023-12-20T20:01:27;2.80;99.90
5210;DHT22;2624;48.048;11.706;2023-12-20T20:06:29;2.90;99.90
5210;DHT22;2624;48.048;11.706;2023-12-20T20:11:31;2.80;99.90
5210;DHT22;2624;48.048;11.706;2023-12-20T20:16:34;2.90;99.90
5210;DHT22;2624;48.048;11.706;2023-12-20T20:21:36;2.90;99.90
5210;DHT22;2624;48.048;11.706;2023-12-20T20:26:38;2.90;99.90
5210;DHT22;2624;48.048;11.706;2023-12-20T20:31:41;2.90;99.90
5210;DHT22;2624;48.048;11.706;2023-12-20T20:36:43;2.90;99.90
5210;DHT22;2624;48.048;11.706;2023-12-20T20:41:45;2.90;99.90
5210;DHT22;2624;48.048;11.706;2023-12-20T20:46:48;3.00;99.90
5210;DHT22;2624;48.048;11.706;2023-12-20T20:51:51;3.00;99.90
5210;DHT22;2624;48.048;11.706;2023-12-20T20:56:53;2.90;99.90
5210;DHT22;2624;48.048;11.706;2023-12-20T21:01:56;3.00;99.90
5210;DHT22;2624;48.048;11.706;2023-12-20T21:06:58;3.00;99.90
5210;DHT22;2624;48.048;11.706;2023-12-20T21:11:59;2.90;99.90
5210;DHT22;2624;48.048;11.706;2023-12-20T21:17:03;3.00;99.90
5210;DHT22;2624;48.048;11.706;2023-12-20T21:22:05;2.90;99.90
5210;DHT22;2624;48.048;11.706;2023-12-20T21:27:06;3.00;99.90
5210;DHT22;2624;48.048;11.706;2023-12-20T21:32:10;2.90;99.90
5210;DHT22;2624;48.048;11.706;2023-12-20T21:37:12;3.00;99.90
5210;DHT22;2624;48.048;11.706;2023-12-20T21:42:14;3.00;99.90
5210;DHT22;2624;48.048;11.706;2023-12-20T21:47:17;2.90;99.90
5210;DHT22;2624;48.048;11.706;2023-12-20T21:52:19;3.00;99.90
5210;DHT22;2624;48.048;11.706;2023-12-20T21:57:21;2.90;99.90
5210;DHT22;2624;48.048;11.706;2023-12-20T22:02:24;3.10;99.90
5210;DHT22;2624;48.048;11.706;2023-12-20T22:07:26;3.00;99.90
5210;DHT22;2624;48.048;11.706;2023-12-20T22:12:27;2.90;99.90
5210;DHT22;2624;48.048;11.706;2023-12-20T22:17:30;2.90;99.90
5210;DHT22;2624;48.048;11.706;2023-12-20T22:22:32;2.90;99.90
5210;DHT22;2624;48.048;11.706;2023-12-20T22:27:34;3.00;99.90
5210;DHT22;2624;48.048;11.706;2023-12-20T22:32:37;2.90;99.90
5210;DHT22;2624;48.048;11.706;2023-12-20T22:37:39;3.00;99.90
5210;DHT22;2624;48.048;11.706;2023-12-20T22:42:42;3.00;99.90
5210;DHT22;2624;48.048;11.706;2023-12-20T22:47:45;3.00;99.90
5210;DHT22;2624;48.048;11.706;2023-12-20T22:52:47;3.00;99.90
5210;DHT22;2624;48.048;11.706;2023-12-20T22:57:48;3.00;99.90
5210;DHT22;2624;48.048;11.706;2023-12-20T23:02:52;3.00;99.90
5210;DHT22;2624;48.048;11.706;2023-12-20T23:07:54;3.00;99.90
5210;DHT22;2624;48.048;11.706;2023-12-20T23:12:55;2.90;99.90
5210;DHT22;2624;48.048;11.706;2023-12-20T23:17:59;3.00;99.90
5210;DHT22;2624;48.048;11.706;2023-12-20T23:23:01;3.00;99.90
5210;DHT22;2624;48.048;11.706;2023-12-20T23:28:03;3.00;99.90
5210;DHT22;2624;48.048;11.706;2023-12-20T23:33:06;3.10;99.90
5210;DHT22;2624;48.048;11.706;2023-12-20T23:38:08;3.10;99.90
5210;DHT22;2624;48.048;11.706;2023-12-20T23:43:10;3.10;99.90
5210;DHT22;2624;48.048;11.706;2023-12-20T23:48:13;3.10;99.90
5210;DHT22;2624;48.048;11.706;2023-12-20T23:53:15;3.10;99.90
5210;DHT22;2624;48.048;11.706;2023-12-20T23:58:17;3.10;99.90
